sensor_id;sensor_type;location;lat;lon;timestamp;P1;durP1;ratioP1;P2;durP2;ratioP2
14373;SDS011;7270;49.004;12.066;2022-09-03T00:01:34;1.00;;;1.00;;
14373;SDS011;7270;49.004;12.066;2022-09-03T00:04:04;1.00;;;1.00;;
14373;SDS011;7270;49.004;12.066;2022-09-03T00:06:37;1.10;;;1.10;;
14373;SDS011;7270;49.004;12.066;2022-09-03T00:09:06;1.10;;;1.10;;
14373;SDS011;7270;49.004;12.066;2022-09-03T00:11:37;1.10;;;1.10;;
14373;SDS011;7270;49.004;12.066;2022-09-03T00:14:05;1.00;;;1.00;;
14373;SDS011;7270;49.004;12.066;2022-09-03T00:16:33;1.17;;;1.17;;
14373;SDS011;7270;49.004;12.066;2022-09-03T00:19:03;1.00;;;1.00;;
14373;SDS011;7270;49.004;12.066;2022-09-03T00:21:33;0.90;;;0.90;;
14373;SDS011;7270;49.004;12.066;2022-09-03T00:24:00;1.00;;;1.00;;
14373;SDS011;7270;49.004;12.066;2022-09-03T00:26:29;1.10;;;1.10;;
14373;SDS011;7270;49.004;12.066;2022-09-03T00:29:00;1.13;;;1.13;;
14373;SDS011;7270;49.004;12.066;2022-09-03T00:31:29;1.40;;;1.30;;
14373;SDS011;7270;49.004;12.066;2022-09-03T00:34:09;1.00;;;1.00;;
14373;SDS011;7270;49.004;12.066;2022-09-03T00:36:37;1.10;;;1.10;;
14373;SDS011;7270;49.004;12.066;2022-09-03T00:39:08;1.10;;;1.10;;
14373;SDS011;7270;49.004;12.066;2022-09-03T00:41:35;1.00;;;1.00;;
14373;SDS011;7270;49.004;12.066;2022-09-03T00:44:17;1.00;;;1.00;;
14373;SDS011;7270;49.004;12.066;2022-09-03T00:46:48;1.10;;;1.10;;
14373;SDS011;7270;49.004;12.066;2022-09-03T00:49:24;1.10;;;1.10;;
14373;SDS011;7270;49.004;12.066;2022-09-03T00:51:54;1.10;;;1.10;;
14373;SDS011;7270;49.004;12.066;2022-09-03T00:54:27;0.97;;;0.97;;
14373;SDS011;7270;49.004;12.066;2022-09-03T00:57:00;1.10;;;1.10;;
14373;SDS011;7270;49.004;12.066;2022-09-03T00:59:32;1.13;;;1.13;;
14373;SDS011;7270;49.004;12.066;2022-09-03T01:02:06;1.10;;;1.10;;
14373;SDS011;7270;49.004;12.066;2022-09-03T01:04:41;1.00;;;1.00;;
14373;SDS011;7270;49.004;12.066;2022-09-03T01:07:14;1.00;;;1.00;;
14373;SDS011;7270;49.004;12.066;2022-09-03T01:09:45;1.10;;;1.10;;
14373;SDS011;7270;49.004;12.066;2022-09-03T01:12:25;1.40;;;1.30;;
14373;SDS011;7270;49.004;12.066;2022-09-03T01:14:59;1.10;;;1.10;;
14373;SDS011;7270;49.004;12.066;2022-09-03T01:17:31;1.20;;;1.20;;
14373;SDS011;7270;49.004;12.066;2022-09-03T01:20:05;1.00;;;1.00;;
14373;SDS011;7270;49.004;12.066;2022-09-03T01:25:38;0.93;;;0.93;;
14373;SDS011;7270;49.004;12.066;2022-09-03T01:28:16;1.10;;;1.10;;
14373;SDS011;7270;49.004;12.066;2022-09-03T01:30:47;1.10;;;1.10;;
14373;SDS011;7270;49.004;12.066;2022-09-03T01:33:16;1.10;;;1.10;;
14373;SDS011;7270;49.004;12.066;2022-09-03T01:35:45;1.30;;;1.20;;
14373;SDS011;7270;49.004;12.066;2022-09-03T01:38:15;1.40;;;1.30;;
14373;SDS011;7270;49.004;12.066;2022-09-03T01:40:46;1.10;;;1.10;;
14373;SDS011;7270;49.004;12.066;2022-09-03T01:43:27;1.00;;;1.00;;
14373;SDS011;7270;49.004;12.066;2022-09-03T01:46:00;1.00;;;1.00;;
14373;SDS011;7270;49.004;12.066;2022-09-03T01:48:36;1.00;;;1.00;;
14373;SDS011;7270;49.004;12.066;2022-09-03T01:51:07;0.97;;;0.97;;
14373;SDS011;7270;49.004;12.066;2022-09-03T01:53:43;1.00;;;1.00;;
14373;SDS011;7270;49.004;12.066;2022-09-03T01:56:16;1.00;;;1.00;;
14373;SDS011;7270;49.004;12.066;2022-09-03T01:58:47;1.00;;;1.00;;
14373;SDS011;7270;49.004;12.066;2022-09-03T02:01:16;1.13;;;1.13;;
14373;SDS011;7270;49.004;12.066;2022-09-03T02:03:44;1.10;;;1.10;;
14373;SDS011;7270;49.004;12.066;2022-09-03T02:06:12;1.00;;;1.00;;
14373;SDS011;7270;49.004;12.066;2022-09-03T02:08:39;1.00;;;1.00;;
14373;SDS011;7270;49.004;12.066;2022-09-03T02:11:08;1.00;;;1.00;;
14373;SDS011;7270;49.004;12.066;2022-09-03T02:13:42;1.00;;;1.00;;
14373;SDS011;7270;49.004;12.066;2022-09-03T02:16:11;0.90;;;0.90;;
14373;SDS011;7270;49.004;12.066;2022-09-03T02:18:40;1.00;;;1.00;;
14373;SDS011;7270;49.004;12.066;2022-09-03T02:21:07;1.00;;;1.00;;
14373;SDS011;7270;49.004;12.066;2022-09-03T02:23:37;1.00;;;1.00;;
14373;SDS011;7270;49.004;12.066;2022-09-03T02:26:03;1.10;;;1.10;;
14373;SDS011;7270;49.004;12.066;2022-09-03T02:28:37;1.20;;;1.20;;
14373;SDS011;7270;49.004;12.066;2022-09-03T02:31:04;1.10;;;1.10;;
14373;SDS011;7270;49.004;12.066;2022-09-03T02:33:34;0.87;;;0.87;;
14373;SDS011;7270;49.004;12.066;2022-09-03T02:36:01;0.87;;;0.87;;
14373;SDS011;7270;49.004;12.066;2022-09-03T02:38:29;1.10;;;1.10;;
14373;SDS011;7270;49.004;12.066;2022-09-03T02:40:55;1.00;;;1.00;;
14373;SDS011;7270;49.004;12.066;2022-09-03T02:43:23;0.90;;;0.90;;
14373;SDS011;7270;49.004;12.066;2022-09-03T02:45:52;0.90;;;0.90;;
14373;SDS011;7270;49.004;12.066;2022-09-03T02:48:21;0.90;;;0.90;;
14373;SDS011;7270;49.004;12.066;2022-09-03T02:50:55;1.10;;;1.10;;
14373;SDS011;7270;49.004;12.066;2022-09-03T02:53:24;0.70;;;0.70;;
14373;SDS011;7270;49.004;12.066;2022-09-03T02:55:52;1.00;;;1.00;;
14373;SDS011;7270;49.004;12.066;2022-09-03T02:58:18;1.70;;;1.60;;
14373;SDS011;7270;49.004;12.066;2022-09-03T03:00:45;1.00;;;1.00;;
14373;SDS011;7270;49.004;12.066;2022-09-03T03:03:13;2.00;;;1.90;;
14373;SDS011;7270;49.004;12.066;2022-09-03T03:05:41;1.10;;;1.10;;
14373;SDS011;7270;49.004;12.066;2022-09-03T03:08:09;1.10;;;1.10;;
14373;SDS011;7270;49.004;12.066;2022-09-03T03:10:36;1.00;;;1.00;;
14373;SDS011;7270;49.004;12.066;2022-09-03T03:13:02;1.00;;;1.00;;
14373;SDS011;7270;49.004;12.066;2022-09-03T03:15:29;1.00;;;1.00;;
14373;SDS011;7270;49.004;12.066;2022-09-03T03:17:55;1.00;;;1.00;;
14373;SDS011;7270;49.004;12.066;2022-09-03T03:20:22;1.10;;;1.10;;
14373;SDS011;7270;49.004;12.066;2022-09-03T03:22:48;1.00;;;1.00;;
14373;SDS011;7270;49.004;12.066;2022-09-03T03:25:16;0.90;;;0.90;;
14373;SDS011;7270;49.004;12.066;2022-09-03T03:27:42;1.00;;;1.00;;
14373;SDS011;7270;49.004;12.066;2022-09-03T03:30:09;0.90;;;0.90;;
14373;SDS011;7270;49.004;12.066;2022-09-03T03:32:36;1.00;;;1.00;;
14373;SDS011;7270;49.004;12.066;2022-09-03T03:35:02;1.10;;;1.10;;
14373;SDS011;7270;49.004;12.066;2022-09-03T03:37:29;1.00;;;1.00;;
14373;SDS011;7270;49.004;12.066;2022-09-03T03:39:56;1.10;;;1.10;;
14373;SDS011;7270;49.004;12.066;2022-09-03T03:42:23;1.10;;;1.10;;
14373;SDS011;7270;49.004;12.066;2022-09-03T03:44:50;1.00;;;1.00;;
14373;SDS011;7270;49.004;12.066;2022-09-03T03:47:16;0.90;;;0.90;;
14373;SDS011;7270;49.004;12.066;2022-09-03T03:49:48;1.10;;;1.10;;
14373;SDS011;7270;49.004;12.066;2022-09-03T03:52:14;1.13;;;1.13;;
14373;SDS011;7270;49.004;12.066;2022-09-03T03:54:41;1.00;;;1.00;;
14373;SDS011;7270;49.004;12.066;2022-09-03T03:57:07;1.10;;;1.10;;
14373;SDS011;7270;49.004;12.066;2022-09-03T03:59:35;1.10;;;1.10;;
14373;SDS011;7270;49.004;12.066;2022-09-03T04:02:01;1.27;;;1.20;;
14373;SDS011;7270;49.004;12.066;2022-09-03T04:04:30;0.90;;;0.90;;
14373;SDS011;7270;49.004;12.066;2022-09-03T04:07:00;1.00;;;1.00;;
14373;SDS011;7270;49.004;12.066;2022-09-03T04:09:27;0.73;;;0.73;;
14373;SDS011;7270;49.004;12.066;2022-09-03T04:11:53;0.90;;;0.90;;
14373;SDS011;7270;49.004;12.066;2022-09-03T04:14:26;1.40;;;1.30;;
14373;SDS011;7270;49.004;12.066;2022-09-03T04:16:54;1.37;;;1.30;;
14373;SDS011;7270;49.004;12.066;2022-09-03T04:19:34;1.37;;;1.33;;
14373;SDS011;7270;49.004;12.066;2022-09-03T04:22:01;1.73;;;1.63;;
14373;SDS011;7270;49.004;12.066;2022-09-03T04:24:28;1.17;;;1.17;;
14373;SDS011;7270;49.004;12.066;2022-09-03T04:26:54;1.20;;;1.20;;
14373;SDS011;7270;49.004;12.066;2022-09-03T04:29:28;1.10;;;1.10;;
14373;SDS011;7270;49.004;12.066;2022-09-03T04:31:56;1.20;;;1.20;;
14373;SDS011;7270;49.004;12.066;2022-09-03T04:34:40;1.10;;;1.10;;
14373;SDS011;7270;49.004;12.066;2022-09-03T04:37:06;1.30;;;1.30;;
14373;SDS011;7270;49.004;12.066;2022-09-03T04:39:33;0.90;;;0.90;;
14373;SDS011;7270;49.004;12.066;2022-09-03T04:41:59;1.40;;;1.30;;
14373;SDS011;7270;49.004;12.066;2022-09-03T04:44:26;1.20;;;1.20;;
14373;SDS011;7270;49.004;12.066;2022-09-03T04:46:52;1.10;;;1.10;;
14373;SDS011;7270;49.004;12.066;2022-09-03T04:49:20;1.10;;;1.10;;
14373;SDS011;7270;49.004;12.066;2022-09-03T04:51:46;1.30;;;1.20;;
14373;SDS011;7270;49.004;12.066;2022-09-03T04:54:12;1.10;;;1.10;;
14373;SDS011;7270;49.004;12.066;2022-09-03T04:56:39;1.10;;;1.10;;
14373;SDS011;7270;49.004;12.066;2022-09-03T04:59:06;0.90;;;0.90;;
14373;SDS011;7270;49.004;12.066;2022-09-03T05:01:33;0.90;;;0.90;;
14373;SDS011;7270;49.004;12.066;2022-09-03T05:03:59;1.00;;;1.00;;
14373;SDS011;7270;49.004;12.066;2022-09-03T05:06:35;1.00;;;1.00;;
14373;SDS011;7270;49.004;12.066;2022-09-03T05:09:02;1.00;;;1.00;;
14373;SDS011;7270;49.004;12.066;2022-09-03T05:11:29;0.90;;;0.90;;
14373;SDS011;7270;49.004;12.066;2022-09-03T05:13:56;1.00;;;1.00;;
14373;SDS011;7270;49.004;12.066;2022-09-03T05:16:23;0.90;;;0.90;;
14373;SDS011;7270;49.004;12.066;2022-09-03T05:18:50;0.90;;;0.90;;
14373;SDS011;7270;49.004;12.066;2022-09-03T05:21:18;1.00;;;1.00;;
14373;SDS011;7270;49.004;12.066;2022-09-03T05:23:46;1.00;;;1.00;;
14373;SDS011;7270;49.004;12.066;2022-09-03T05:26:14;0.90;;;0.90;;
14373;SDS011;7270;49.004;12.066;2022-09-03T05:28:41;1.00;;;1.00;;
14373;SDS011;7270;49.004;12.066;2022-09-03T05:31:09;0.70;;;0.70;;
14373;SDS011;7270;49.004;12.066;2022-09-03T05:33:36;1.00;;;1.00;;
14373;SDS011;7270;49.004;12.066;2022-09-03T05:36:03;1.00;;;1.00;;
14373;SDS011;7270;49.004;12.066;2022-09-03T05:38:29;0.93;;;0.93;;
14373;SDS011;7270;49.004;12.066;2022-09-03T05:40:59;1.03;;;1.03;;
14373;SDS011;7270;49.004;12.066;2022-09-03T05:43:26;0.87;;;0.87;;
14373;SDS011;7270;49.004;12.066;2022-09-03T05:45:55;1.10;;;1.10;;
14373;SDS011;7270;49.004;12.066;2022-09-03T05:48:24;1.03;;;1.03;;
14373;SDS011;7270;49.004;12.066;2022-09-03T05:50:59;1.10;;;1.10;;
14373;SDS011;7270;49.004;12.066;2022-09-03T05:53:26;0.97;;;0.97;;
14373;SDS011;7270;49.004;12.066;2022-09-03T05:55:56;1.10;;;1.10;;
14373;SDS011;7270;49.004;12.066;2022-09-03T05:58:24;1.00;;;1.00;;
14373;SDS011;7270;49.004;12.066;2022-09-03T06:00:50;1.10;;;1.10;;
14373;SDS011;7270;49.004;12.066;2022-09-03T06:03:17;1.10;;;1.10;;
14373;SDS011;7270;49.004;12.066;2022-09-03T06:05:51;1.00;;;1.00;;
14373;SDS011;7270;49.004;12.066;2022-09-03T06:08:28;0.90;;;0.90;;
14373;SDS011;7270;49.004;12.066;2022-09-03T06:10:56;1.00;;;1.00;;
14373;SDS011;7270;49.004;12.066;2022-09-03T06:13:24;0.93;;;0.93;;
14373;SDS011;7270;49.004;12.066;2022-09-03T06:15:54;1.00;;;1.00;;
14373;SDS011;7270;49.004;12.066;2022-09-03T06:18:21;1.00;;;1.00;;
14373;SDS011;7270;49.004;12.066;2022-09-03T06:20:52;1.00;;;1.00;;
14373;SDS011;7270;49.004;12.066;2022-09-03T06:23:19;1.00;;;1.00;;
14373;SDS011;7270;49.004;12.066;2022-09-03T06:25:45;0.90;;;0.90;;
14373;SDS011;7270;49.004;12.066;2022-09-03T06:28:11;1.00;;;1.00;;
14373;SDS011;7270;49.004;12.066;2022-09-03T06:30:39;1.10;;;1.10;;
14373;SDS011;7270;49.004;12.066;2022-09-03T06:33:06;1.00;;;1.00;;
14373;SDS011;7270;49.004;12.066;2022-09-03T06:35:32;1.03;;;1.03;;
14373;SDS011;7270;49.004;12.066;2022-09-03T06:37:59;0.90;;;0.90;;
14373;SDS011;7270;49.004;12.066;2022-09-03T06:40:25;1.10;;;1.10;;
14373;SDS011;7270;49.004;12.066;2022-09-03T06:42:55;1.00;;;1.00;;
14373;SDS011;7270;49.004;12.066;2022-09-03T06:45:23;0.90;;;0.90;;
14373;SDS011;7270;49.004;12.066;2022-09-03T06:47:50;1.00;;;1.00;;
14373;SDS011;7270;49.004;12.066;2022-09-03T06:50:18;0.97;;;0.97;;
14373;SDS011;7270;49.004;12.066;2022-09-03T06:52:49;1.00;;;1.00;;
14373;SDS011;7270;49.004;12.066;2022-09-03T06:55:18;1.00;;;1.00;;
14373;SDS011;7270;49.004;12.066;2022-09-03T06:57:44;1.00;;;1.00;;
14373;SDS011;7270;49.004;12.066;2022-09-03T07:00:11;1.00;;;1.00;;
14373;SDS011;7270;49.004;12.066;2022-09-03T07:02:47;1.10;;;1.10;;
14373;SDS011;7270;49.004;12.066;2022-09-03T07:05:15;0.97;;;0.97;;
14373;SDS011;7270;49.004;12.066;2022-09-03T07:07:41;1.00;;;1.00;;
14373;SDS011;7270;49.004;12.066;2022-09-03T07:10:09;1.03;;;1.03;;
14373;SDS011;7270;49.004;12.066;2022-09-03T07:12:36;1.20;;;1.20;;
14373;SDS011;7270;49.004;12.066;2022-09-03T07:15:02;1.20;;;1.20;;
14373;SDS011;7270;49.004;12.066;2022-09-03T07:17:28;1.27;;;1.27;;
14373;SDS011;7270;49.004;12.066;2022-09-03T07:19:55;1.10;;;1.10;;
14373;SDS011;7270;49.004;12.066;2022-09-03T07:22:22;1.10;;;1.10;;
14373;SDS011;7270;49.004;12.066;2022-09-03T07:24:49;1.17;;;1.17;;
14373;SDS011;7270;49.004;12.066;2022-09-03T07:27:16;0.93;;;0.93;;
14373;SDS011;7270;49.004;12.066;2022-09-03T07:29:42;1.07;;;1.07;;
14373;SDS011;7270;49.004;12.066;2022-09-03T07:32:09;0.90;;;0.90;;
14373;SDS011;7270;49.004;12.066;2022-09-03T07:34:35;1.00;;;1.00;;
14373;SDS011;7270;49.004;12.066;2022-09-03T07:37:01;0.90;;;0.90;;
14373;SDS011;7270;49.004;12.066;2022-09-03T07:39:30;0.97;;;0.97;;
14373;SDS011;7270;49.004;12.066;2022-09-03T07:41:57;1.00;;;1.00;;
14373;SDS011;7270;49.004;12.066;2022-09-03T07:44:24;1.00;;;1.00;;
14373;SDS011;7270;49.004;12.066;2022-09-03T07:46:52;1.03;;;1.03;;
14373;SDS011;7270;49.004;12.066;2022-09-03T07:49:19;1.10;;;1.10;;
14373;SDS011;7270;49.004;12.066;2022-09-03T07:51:47;1.20;;;1.20;;
14373;SDS011;7270;49.004;12.066;2022-09-03T07:54:14;1.10;;;1.10;;
14373;SDS011;7270;49.004;12.066;2022-09-03T07:56:42;1.40;;;1.30;;
14373;SDS011;7270;49.004;12.066;2022-09-03T07:59:08;1.30;;;1.20;;
14373;SDS011;7270;49.004;12.066;2022-09-03T08:01:36;1.40;;;1.30;;
14373;SDS011;7270;49.004;12.066;2022-09-03T08:04:02;1.40;;;1.30;;
14373;SDS011;7270;49.004;12.066;2022-09-03T08:06:31;1.20;;;1.20;;
14373;SDS011;7270;49.004;12.066;2022-09-03T08:08:59;1.50;;;1.40;;
14373;SDS011;7270;49.004;12.066;2022-09-03T08:11:26;1.43;;;1.33;;
14373;SDS011;7270;49.004;12.066;2022-09-03T08:13:54;1.40;;;1.30;;
14373;SDS011;7270;49.004;12.066;2022-09-03T08:16:25;1.30;;;1.20;;
14373;SDS011;7270;49.004;12.066;2022-09-03T08:18:51;1.40;;;1.30;;
14373;SDS011;7270;49.004;12.066;2022-09-03T08:21:19;1.77;;;1.67;;
14373;SDS011;7270;49.004;12.066;2022-09-03T08:23:45;1.80;;;1.70;;
14373;SDS011;7270;49.004;12.066;2022-09-03T08:26:12;1.53;;;1.43;;
14373;SDS011;7270;49.004;12.066;2022-09-03T08:28:39;1.47;;;1.37;;
14373;SDS011;7270;49.004;12.066;2022-09-03T08:31:09;1.40;;;1.30;;
14373;SDS011;7270;49.004;12.066;2022-09-03T08:33:36;1.43;;;1.33;;
14373;SDS011;7270;49.004;12.066;2022-09-03T08:36:03;1.40;;;1.30;;
14373;SDS011;7270;49.004;12.066;2022-09-03T08:38:30;1.50;;;1.40;;
14373;SDS011;7270;49.004;12.066;2022-09-03T08:41:07;1.40;;;1.30;;
14373;SDS011;7270;49.004;12.066;2022-09-03T08:43:37;1.50;;;1.40;;
14373;SDS011;7270;49.004;12.066;2022-09-03T08:46:08;1.50;;;1.40;;
14373;SDS011;7270;49.004;12.066;2022-09-03T08:48:34;1.50;;;1.40;;
14373;SDS011;7270;49.004;12.066;2022-09-03T08:51:11;1.50;;;1.40;;
14373;SDS011;7270;49.004;12.066;2022-09-03T08:53:49;1.80;;;1.70;;
14373;SDS011;7270;49.004;12.066;2022-09-03T08:56:26;2.13;;;2.03;;
14373;SDS011;7270;49.004;12.066;2022-09-03T08:59:01;3.30;;;3.20;;
14373;SDS011;7270;49.004;12.066;2022-09-03T09:01:49;3.93;;;3.73;;
14373;SDS011;7270;49.004;12.066;2022-09-03T09:04:20;6.80;;;6.50;;
14373;SDS011;7270;49.004;12.066;2022-09-03T09:06:55;13.77;;;13.13;;
14373;SDS011;7270;49.004;12.066;2022-09-03T09:09:26;59.67;;;56.90;;
14373;SDS011;7270;49.004;12.066;2022-09-03T09:11:57;587.50;;;524.03;;
14373;SDS011;7270;49.004;12.066;2022-09-03T09:14:25;3.27;;;3.10;;
14373;SDS011;7270;49.004;12.066;2022-09-03T09:16:59;1.70;;;1.60;;
14373;SDS011;7270;49.004;12.066;2022-09-03T09:19:30;1.60;;;1.50;;
14373;SDS011;7270;49.004;12.066;2022-09-03T09:22:09;1.50;;;1.40;;
14373;SDS011;7270;49.004;12.066;2022-09-03T09:24:37;1.40;;;1.30;;
14373;SDS011;7270;49.004;12.066;2022-09-03T09:27:05;1.40;;;1.30;;
14373;SDS011;7270;49.004;12.066;2022-09-03T09:29:41;1.30;;;1.20;;
14373;SDS011;7270;49.004;12.066;2022-09-03T09:32:13;1.20;;;1.20;;
14373;SDS011;7270;49.004;12.066;2022-09-03T09:34:48;1.20;;;1.20;;
14373;SDS011;7270;49.004;12.066;2022-09-03T09:37:15;1.10;;;1.10;;
14373;SDS011;7270;49.004;12.066;2022-09-03T09:39:52;1.10;;;1.10;;
14373;SDS011;7270;49.004;12.066;2022-09-03T09:42:22;1.10;;;1.10;;
14373;SDS011;7270;49.004;12.066;2022-09-03T09:44:49;1.13;;;1.13;;
14373;SDS011;7270;49.004;12.066;2022-09-03T09:47:20;1.30;;;1.20;;
14373;SDS011;7270;49.004;12.066;2022-09-03T09:49:50;1.10;;;1.10;;
14373;SDS011;7270;49.004;12.066;2022-09-03T09:52:16;1.30;;;1.20;;
14373;SDS011;7270;49.004;12.066;2022-09-03T09:54:43;1.10;;;1.10;;
14373;SDS011;7270;49.004;12.066;2022-09-03T09:57:13;1.40;;;1.30;;
14373;SDS011;7270;49.004;12.066;2022-09-03T09:59:47;1.70;;;1.60;;
14373;SDS011;7270;49.004;12.066;2022-09-03T10:02:17;3.40;;;3.27;;
14373;SDS011;7270;49.004;12.066;2022-09-03T10:04:46;5.60;;;5.30;;
14373;SDS011;7270;49.004;12.066;2022-09-03T10:07:17;10.63;;;10.13;;
14373;SDS011;7270;49.004;12.066;2022-09-03T10:10:00;118.73;;;113.50;;
14373;SDS011;7270;49.004;12.066;2022-09-03T10:12:35;176.32;;;168.65;;
14373;SDS011;7270;49.004;12.066;2022-09-03T10:15:11;522.92;;;491.80;;
14373;SDS011;7270;49.004;12.066;2022-09-03T10:17:42;702.90;;;642.77;;
14373;SDS011;7270;49.004;12.066;2022-09-03T10:20:17;696.50;;;646.58;;
14373;SDS011;7270;49.004;12.066;2022-09-03T10:22:55;727.10;;;662.10;;
14373;SDS011;7270;49.004;12.066;2022-09-03T10:25:23;768.00;;;704.85;;
14373;SDS011;7270;49.004;12.066;2022-09-03T10:27:50;770.72;;;709.08;;
14373;SDS011;7270;49.004;12.066;2022-09-03T10:30:18;682.17;;;632.75;;
14373;SDS011;7270;49.004;12.066;2022-09-03T10:32:46;550.67;;;515.50;;
14373;SDS011;7270;49.004;12.066;2022-09-03T10:35:20;607.17;;;567.67;;
14373;SDS011;7270;49.004;12.066;2022-09-03T10:37:50;739.53;;;675.30;;
14373;SDS011;7270;49.004;12.066;2022-09-03T10:40:22;424.45;;;400.10;;
14373;SDS011;7270;49.004;12.066;2022-09-03T10:42:58;526.08;;;493.58;;
14373;SDS011;7270;49.004;12.066;2022-09-03T10:45:28;693.53;;;636.38;;
14373;SDS011;7270;49.004;12.066;2022-09-03T10:48:02;631.17;;;586.22;;
14373;SDS011;7270;49.004;12.066;2022-09-03T10:50:34;200.60;;;192.00;;
14373;SDS011;7270;49.004;12.066;2022-09-03T10:53:06;150.15;;;143.63;;
14373;SDS011;7270;49.004;12.066;2022-09-03T10:55:46;170.65;;;163.23;;
14373;SDS011;7270;49.004;12.066;2022-09-03T10:58:19;114.22;;;109.20;;
14373;SDS011;7270;49.004;12.066;2022-09-03T11:00:50;110.20;;;105.32;;
14373;SDS011;7270;49.004;12.066;2022-09-03T11:06:09;194.90;;;184.80;;
14373;SDS011;7270;49.004;12.066;2022-09-03T11:08:36;464.00;;;437.27;;
14373;SDS011;7270;49.004;12.066;2022-09-03T11:11:06;234.02;;;222.48;;
14373;SDS011;7270;49.004;12.066;2022-09-03T11:13:36;198.80;;;190.15;;
14373;SDS011;7270;49.004;12.066;2022-09-03T11:16:05;131.93;;;125.97;;
14373;SDS011;7270;49.004;12.066;2022-09-03T11:18:34;289.58;;;274.23;;
14373;SDS011;7270;49.004;12.066;2022-09-03T11:21:04;702.70;;;642.00;;
14373;SDS011;7270;49.004;12.066;2022-09-03T11:23:34;234.17;;;214.43;;
14373;SDS011;7270;49.004;12.066;2022-09-03T11:26:07;2.20;;;2.10;;
14373;SDS011;7270;49.004;12.066;2022-09-03T11:28:37;1.90;;;1.80;;
14373;SDS011;7270;49.004;12.066;2022-09-03T11:31:15;1.80;;;1.70;;
14373;SDS011;7270;49.004;12.066;2022-09-03T11:33:43;1.70;;;1.60;;
14373;SDS011;7270;49.004;12.066;2022-09-03T11:36:10;1.70;;;1.60;;
14373;SDS011;7270;49.004;12.066;2022-09-03T11:38:48;1.60;;;1.50;;
14373;SDS011;7270;49.004;12.066;2022-09-03T11:41:21;1.50;;;1.40;;
14373;SDS011;7270;49.004;12.066;2022-09-03T11:43:50;1.50;;;1.40;;
14373;SDS011;7270;49.004;12.066;2022-09-03T11:46:26;1.40;;;1.30;;
14373;SDS011;7270;49.004;12.066;2022-09-03T11:49:08;76.53;;;68.43;;
14373;SDS011;7270;49.004;12.066;2022-09-03T11:51:35;1.30;;;1.20;;
14373;SDS011;7270;49.004;12.066;2022-09-03T11:54:05;1.33;;;1.30;;
14373;SDS011;7270;49.004;12.066;2022-09-03T11:56:32;1.50;;;1.40;;
14373;SDS011;7270;49.004;12.066;2022-09-03T11:59:04;1.20;;;1.20;;
14373;SDS011;7270;49.004;12.066;2022-09-03T12:01:31;1.10;;;1.10;;
14373;SDS011;7270;49.004;12.066;2022-09-03T12:03:58;1.20;;;1.20;;
14373;SDS011;7270;49.004;12.066;2022-09-03T12:12:06;1.10;;;1.10;;
14373;SDS011;7270;49.004;12.066;2022-09-03T12:14:38;1.10;;;1.10;;
14373;SDS011;7270;49.004;12.066;2022-09-03T12:17:07;1.10;;;1.10;;
14373;SDS011;7270;49.004;12.066;2022-09-03T12:19:49;1.20;;;1.20;;
14373;SDS011;7270;49.004;12.066;2022-09-03T12:22:16;1.10;;;1.10;;
14373;SDS011;7270;49.004;12.066;2022-09-03T12:24:43;1.10;;;1.10;;
14373;SDS011;7270;49.004;12.066;2022-09-03T12:27:25;1.10;;;1.10;;
14373;SDS011;7270;49.004;12.066;2022-09-03T12:30:00;1.10;;;1.10;;
14373;SDS011;7270;49.004;12.066;2022-09-03T12:32:27;1.10;;;1.10;;
14373;SDS011;7270;49.004;12.066;2022-09-03T12:34:56;3.70;;;3.57;;
14373;SDS011;7270;49.004;12.066;2022-09-03T12:37:23;1.00;;;1.00;;
14373;SDS011;7270;49.004;12.066;2022-09-03T12:39:50;1.10;;;1.10;;
14373;SDS011;7270;49.004;12.066;2022-09-03T12:42:19;1.23;;;1.20;;
14373;SDS011;7270;49.004;12.066;2022-09-03T12:44:46;1.10;;;1.10;;
14373;SDS011;7270;49.004;12.066;2022-09-03T12:47:14;1.20;;;1.20;;
14373;SDS011;7270;49.004;12.066;2022-09-03T12:49:42;1.10;;;1.10;;
14373;SDS011;7270;49.004;12.066;2022-09-03T12:52:14;1.00;;;1.00;;
14373;SDS011;7270;49.004;12.066;2022-09-03T12:54:43;1.20;;;1.20;;
14373;SDS011;7270;49.004;12.066;2022-09-03T12:57:10;1.00;;;1.00;;
14373;SDS011;7270;49.004;12.066;2022-09-03T12:59:39;1.00;;;1.00;;
14373;SDS011;7270;49.004;12.066;2022-09-03T13:02:11;1.00;;;1.00;;
14373;SDS011;7270;49.004;12.066;2022-09-03T13:04:39;1.10;;;1.10;;
14373;SDS011;7270;49.004;12.066;2022-09-03T13:07:13;1.10;;;1.10;;
14373;SDS011;7270;49.004;12.066;2022-09-03T13:09:45;1.07;;;1.07;;
14373;SDS011;7270;49.004;12.066;2022-09-03T13:12:22;1.00;;;1.00;;
14373;SDS011;7270;49.004;12.066;2022-09-03T13:14:50;1.10;;;1.10;;
14373;SDS011;7270;49.004;12.066;2022-09-03T13:17:20;1.00;;;1.00;;
14373;SDS011;7270;49.004;12.066;2022-09-03T13:20:04;1.00;;;1.00;;
14373;SDS011;7270;49.004;12.066;2022-09-03T13:22:39;1.00;;;1.00;;
14373;SDS011;7270;49.004;12.066;2022-09-03T13:25:12;1.00;;;1.00;;
14373;SDS011;7270;49.004;12.066;2022-09-03T13:27:41;0.90;;;0.90;;
14373;SDS011;7270;49.004;12.066;2022-09-03T13:30:10;1.00;;;1.00;;
14373;SDS011;7270;49.004;12.066;2022-09-03T13:32:41;1.10;;;1.10;;
14373;SDS011;7270;49.004;12.066;2022-09-03T13:35:19;1.00;;;1.00;;
14373;SDS011;7270;49.004;12.066;2022-09-03T13:37:51;1.00;;;1.00;;
14373;SDS011;7270;49.004;12.066;2022-09-03T13:40:21;1.00;;;1.00;;
14373;SDS011;7270;49.004;12.066;2022-09-03T13:42:50;1.10;;;1.10;;
14373;SDS011;7270;49.004;12.066;2022-09-03T13:45:22;0.90;;;0.90;;
14373;SDS011;7270;49.004;12.066;2022-09-03T13:47:51;1.00;;;1.00;;
14373;SDS011;7270;49.004;12.066;2022-09-03T13:50:40;1.00;;;1.00;;
14373;SDS011;7270;49.004;12.066;2022-09-03T13:53:08;0.90;;;0.90;;
14373;SDS011;7270;49.004;12.066;2022-09-03T13:55:40;1.00;;;1.00;;
14373;SDS011;7270;49.004;12.066;2022-09-03T13:58:10;0.90;;;0.90;;
14373;SDS011;7270;49.004;12.066;2022-09-03T14:00:45;1.00;;;1.00;;
14373;SDS011;7270;49.004;12.066;2022-09-03T14:03:16;0.90;;;0.90;;
14373;SDS011;7270;49.004;12.066;2022-09-03T14:05:49;0.90;;;0.90;;
14373;SDS011;7270;49.004;12.066;2022-09-03T14:08:21;0.90;;;0.90;;
14373;SDS011;7270;49.004;12.066;2022-09-03T14:10:51;0.90;;;0.90;;
14373;SDS011;7270;49.004;12.066;2022-09-03T14:13:21;1.00;;;1.00;;
14373;SDS011;7270;49.004;12.066;2022-09-03T14:15:51;0.90;;;0.90;;
14373;SDS011;7270;49.004;12.066;2022-09-03T14:18:28;1.00;;;1.00;;
14373;SDS011;7270;49.004;12.066;2022-09-03T14:21:03;0.90;;;0.90;;
14373;SDS011;7270;49.004;12.066;2022-09-03T14:23:35;0.90;;;0.90;;
14373;SDS011;7270;49.004;12.066;2022-09-03T14:26:05;0.90;;;0.90;;
14373;SDS011;7270;49.004;12.066;2022-09-03T14:28:33;1.00;;;1.00;;
14373;SDS011;7270;49.004;12.066;2022-09-03T14:31:04;0.80;;;0.80;;
14373;SDS011;7270;49.004;12.066;2022-09-03T14:33:34;0.90;;;0.90;;
14373;SDS011;7270;49.004;12.066;2022-09-03T14:36:06;1.00;;;1.00;;
14373;SDS011;7270;49.004;12.066;2022-09-03T14:38:41;0.80;;;0.80;;
14373;SDS011;7270;49.004;12.066;2022-09-03T14:41:17;0.90;;;0.90;;
14373;SDS011;7270;49.004;12.066;2022-09-03T14:43:52;0.90;;;0.90;;
14373;SDS011;7270;49.004;12.066;2022-09-03T14:46:26;0.90;;;0.90;;
14373;SDS011;7270;49.004;12.066;2022-09-03T14:49:03;0.90;;;0.90;;
14373;SDS011;7270;49.004;12.066;2022-09-03T14:51:45;0.90;;;0.90;;
14373;SDS011;7270;49.004;12.066;2022-09-03T14:54:20;0.90;;;0.90;;
14373;SDS011;7270;49.004;12.066;2022-09-03T14:56:53;0.90;;;0.90;;
14373;SDS011;7270;49.004;12.066;2022-09-03T14:59:31;0.80;;;0.80;;
14373;SDS011;7270;49.004;12.066;2022-09-03T15:02:27;1.00;;;1.00;;
14373;SDS011;7270;49.004;12.066;2022-09-03T15:05:06;1.00;;;1.00;;
14373;SDS011;7270;49.004;12.066;2022-09-03T15:07:38;0.90;;;0.90;;
14373;SDS011;7270;49.004;12.066;2022-09-03T15:10:11;1.00;;;1.00;;
14373;SDS011;7270;49.004;12.066;2022-09-03T15:12:41;0.90;;;0.90;;